createdAt,value
2023-02-03T00:00:36.877Z,-0.17
2023-02-03T00:01:36.857Z,-0.14
2023-02-03T00:02:36.824Z,-0.07
2023-02-03T00:03:36.788Z,0.00
2023-02-03T00:04:36.777Z,0.04
2023-02-03T00:05:36.812Z,0.05
2023-02-03T00:06:36.791Z,0.05
2023-02-03T00:07:36.747Z,0.05
2023-02-03T00:08:36.744Z,0.07
2023-02-03T00:09:36.696Z,0.07
2023-02-03T00:10:36.741Z,0.08
2023-02-03T00:11:36.747Z,0.08
2023-02-03T00:12:36.692Z,0.11
2023-02-03T00:13:36.671Z,0.11
2023-02-03T00:14:36.663Z,0.11
2023-02-03T00:15:36.679Z,0.12
2023-02-03T00:16:36.722Z,0.16
2023-02-03T00:17:36.626Z,0.16
2023-02-03T00:18:36.623Z,0.18
2023-02-03T00:19:36.598Z,0.19
2023-02-03T00:20:36.657Z,0.21
2023-02-03T00:21:36.568Z,0.22
2023-02-03T00:22:36.581Z,0.22
2023-02-03T00:23:36.549Z,0.23
2023-02-03T00:24:36.567Z,0.26
2023-02-03T00:25:36.573Z,0.29
2023-02-03T00:26:36.510Z,0.28
2023-02-03T00:27:36.521Z,0.31
2023-02-03T00:28:36.485Z,0.34
2023-02-03T00:29:36.494Z,0.41
2023-02-03T00:30:36.541Z,0.52
2023-02-03T00:31:36.573Z,0.55
2023-02-03T00:32:36.501Z,0.55
2023-02-03T00:33:36.458Z,0.52
2023-02-03T00:34:36.453Z,0.58
2023-02-03T00:35:36.461Z,0.66
2023-02-03T00:36:36.438Z,0.70
2023-02-03T00:37:36.430Z,0.74
2023-02-03T00:38:36.394Z,0.76
2023-02-03T00:39:36.370Z,0.73
2023-02-03T00:40:36.406Z,0.76
2023-02-03T00:41:36.371Z,0.86
2023-02-03T00:42:36.352Z,0.99
2023-02-03T00:43:36.315Z,1.14
2023-02-03T00:44:36.315Z,1.19
2023-02-03T00:45:36.361Z,1.22
2023-02-03T00:46:36.333Z,1.19
2023-02-03T00:47:36.296Z,1.16
2023-02-03T00:48:36.276Z,1.06
2023-02-03T00:49:36.263Z,0.99
2023-02-03T00:50:36.257Z,1.04
2023-02-03T00:51:36.289Z,1.06
2023-02-03T00:52:36.249Z,1.14
2023-02-03T00:53:36.211Z,1.31
2023-02-03T00:54:36.201Z,1.37
2023-02-03T00:55:36.198Z,1.35
2023-02-03T00:56:36.215Z,1.38
2023-02-03T00:57:36.154Z,1.35
2023-02-03T00:58:36.144Z,1.30
2023-02-03T00:59:36.151Z,1.19
2023-02-03T01:00:36.136Z,1.19
2023-02-03T01:01:36.184Z,1.23
2023-02-03T01:02:36.160Z,1.24
2023-02-03T01:03:36.083Z,1.28
2023-02-03T01:04:36.084Z,1.30
2023-02-03T01:05:36.076Z,1.12
2023-02-03T01:06:36.111Z,0.94
2023-02-03T01:07:36.052Z,0.92
2023-02-03T01:08:36.042Z,1.02
2023-02-03T01:09:36.010Z,1.13
2023-02-03T01:10:36.022Z,1.19
2023-02-03T01:11:36.047Z,1.26
2023-02-03T01:12:35.996Z,1.26
2023-02-03T01:13:36.004Z,1.30
2023-02-03T01:14:35.975Z,1.34
2023-02-03T01:15:35.958Z,1.32
2023-02-03T01:16:36.063Z,1.30
2023-02-03T01:17:35.932Z,1.16
2023-02-03T01:18:35.974Z,1.28
2023-02-03T01:19:35.922Z,1.32
2023-02-03T01:20:35.901Z,1.31
2023-02-03T01:21:35.923Z,1.30
2023-02-03T01:22:35.881Z,1.38
2023-02-03T01:23:35.875Z,1.38
2023-02-03T01:24:35.863Z,1.45
2023-02-03T01:25:35.848Z,1.55
2023-02-03T01:26:35.875Z,1.62
2023-02-03T01:27:35.986Z,1.73
2023-02-03T01:28:35.784Z,1.73
2023-02-03T01:29:35.801Z,1.73
2023-02-03T01:30:35.835Z,1.77
2023-02-03T01:31:35.862Z,1.71
2023-02-03T01:32:35.753Z,1.71
2023-02-03T01:33:35.749Z,1.76
2023-02-03T01:34:35.730Z,1.76
2023-02-03T01:35:35.729Z,1.74
2023-02-03T01:36:35.767Z,1.76
2023-02-03T01:37:35.690Z,1.76
2023-02-03T01:38:35.687Z,1.78
2023-02-03T01:39:35.690Z,1.74
2023-02-03T01:40:35.689Z,1.73
2023-02-03T01:41:35.691Z,1.80
2023-02-03T01:42:35.646Z,1.84
2023-02-03T01:43:35.629Z,1.77
2023-02-03T01:44:35.601Z,1.87
2023-02-03T01:45:35.612Z,1.84
2023-02-03T01:46:35.625Z,1.87
2023-02-03T01:47:35.584Z,1.88
2023-02-03T01:48:35.576Z,1.94
2023-02-03T01:49:35.569Z,1.95
2023-02-03T01:50:35.552Z,1.97
2023-02-03T01:51:35.583Z,1.95
2023-02-03T01:52:35.530Z,1.92
2023-02-03T01:53:35.520Z,2.06
2023-02-03T01:54:35.510Z,2.13
2023-02-03T01:55:35.486Z,2.11
2023-02-03T01:56:35.521Z,2.18
2023-02-03T01:57:35.462Z,2.15
2023-02-03T01:58:35.438Z,2.13
2023-02-03T01:59:35.444Z,2.14
2023-02-03T02:00:35.435Z,2.20
2023-02-03T02:01:35.561Z,2.20
2023-02-03T02:02:35.527Z,2.17
2023-02-03T02:03:35.438Z,2.11
2023-02-03T02:04:35.389Z,2.13
2023-02-03T02:05:35.403Z,2.14
2023-02-03T02:06:35.408Z,2.18
2023-02-03T02:07:35.357Z,2.20
2023-02-03T02:08:35.347Z,2.17
2023-02-03T02:09:35.321Z,2.24
2023-02-03T02:10:35.310Z,2.24
2023-02-03T02:11:35.366Z,2.28
2023-02-03T02:12:35.292Z,2.29
2023-02-03T02:13:35.284Z,2.33
2023-02-03T02:14:35.277Z,2.38
2023-02-03T02:15:35.388Z,2.36
2023-02-03T02:16:35.314Z,2.35
2023-02-03T02:17:35.236Z,2.42
2023-02-03T02:18:35.240Z,2.39
2023-02-03T02:19:35.260Z,2.38
2023-02-03T02:20:35.212Z,2.36
2023-02-03T02:21:35.216Z,2.39
2023-02-03T02:22:35.181Z,2.42
2023-02-03T02:23:35.190Z,2.36
2023-02-03T02:24:35.163Z,2.36
2023-02-03T02:25:35.174Z,2.36
2023-02-03T02:26:35.169Z,2.38
2023-02-03T02:27:35.109Z,2.35
2023-02-03T02:28:35.111Z,2.36
2023-02-03T02:29:35.096Z,2.36
2023-02-03T02:30:35.142Z,2.32
2023-02-03T02:31:35.243Z,2.32
2023-02-03T02:32:35.062Z,2.28
2023-02-03T02:33:35.043Z,2.33
2023-02-03T02:34:35.040Z,2.35
2023-02-03T02:35:35.040Z,2.36
2023-02-03T02:36:35.071Z,2.38
2023-02-03T02:37:35.001Z,2.33
2023-02-03T02:38:35.019Z,2.31
2023-02-03T02:39:34.991Z,2.32
2023-02-03T02:40:34.984Z,2.35
2023-02-03T02:41:35.026Z,2.32
2023-02-03T02:42:34.976Z,2.33
2023-02-03T02:43:34.944Z,2.32
2023-02-03T02:44:34.936Z,2.35
2023-02-03T02:45:34.952Z,2.32
2023-02-03T02:46:34.993Z,2.33
2023-02-03T02:47:34.912Z,2.31
2023-02-03T02:48:34.893Z,2.33
2023-02-03T02:49:34.880Z,2.31
2023-02-03T02:50:34.879Z,2.31
2023-02-03T02:51:34.884Z,2.29
2023-02-03T02:52:34.836Z,2.28
2023-02-03T02:53:34.826Z,2.28
2023-02-03T02:54:34.833Z,2.28
2023-02-03T02:55:34.814Z,2.28
2023-02-03T02:56:34.860Z,2.26
2023-02-03T02:57:34.776Z,2.26
2023-02-03T02:58:34.758Z,2.25
2023-02-03T02:59:34.786Z,2.26
2023-02-03T03:00:34.738Z,2.28
2023-02-03T03:01:34.838Z,2.29
2023-02-03T03:02:34.747Z,2.31
2023-02-03T03:03:34.713Z,2.31
2023-02-03T03:04:34.753Z,2.29
2023-02-03T03:05:34.695Z,2.25
2023-02-03T03:06:34.727Z,2.26
2023-02-03T03:07:34.690Z,2.24
2023-02-03T03:08:34.688Z,2.24
2023-02-03T03:09:34.664Z,2.20
2023-02-03T03:10:34.639Z,2.20
2023-02-03T03:11:34.686Z,2.22
2023-02-03T03:12:34.616Z,2.20
2023-02-03T03:13:34.601Z,2.22
2023-02-03T03:14:34.619Z,2.20
2023-02-03T03:15:34.656Z,2.20
2023-02-03T03:16:34.594Z,2.20
2023-02-03T03:17:34.549Z,2.15
2023-02-03T03:18:34.560Z,2.17
2023-02-03T03:19:34.554Z,2.15
2023-02-03T03:20:34.520Z,2.18
2023-02-03T03:21:34.558Z,2.15
2023-02-03T03:22:34.518Z,2.15
2023-02-03T03:23:34.499Z,2.18
2023-02-03T03:24:34.472Z,2.18
2023-02-03T03:25:34.462Z,2.17
2023-02-03T03:26:34.483Z,2.17
2023-02-03T03:27:34.468Z,2.15
2023-02-03T03:28:34.428Z,2.15
2023-02-03T03:29:34.404Z,2.17
2023-02-03T03:30:34.420Z,2.17
2023-02-03T03:31:34.546Z,2.17
2023-02-03T03:32:34.411Z,2.18
2023-02-03T03:33:34.374Z,2.17
2023-02-03T03:34:34.363Z,2.14
2023-02-03T03:35:34.343Z,2.13
2023-02-03T03:36:34.354Z,2.13
2023-02-03T03:37:34.377Z,2.14
2023-02-03T03:38:34.334Z,2.15
2023-02-03T03:39:34.291Z,2.14
2023-02-03T03:40:34.281Z,2.14
2023-02-03T03:41:34.321Z,2.15
2023-02-03T03:42:34.260Z,2.15
2023-02-03T03:43:34.273Z,2.13
2023-02-03T03:44:34.250Z,2.17
2023-02-03T03:45:34.264Z,2.17
2023-02-03T03:46:34.287Z,2.15
2023-02-03T03:47:34.244Z,2.15
2023-02-03T03:48:34.198Z,2.17
2023-02-03T03:49:34.215Z,2.17
2023-02-03T03:50:34.171Z,2.17
2023-02-03T03:51:34.216Z,2.17
2023-02-03T03:52:34.159Z,2.20
2023-02-03T03:53:34.153Z,2.20
2023-02-03T03:54:34.147Z,2.20
2023-02-03T03:55:34.118Z,2.22
2023-02-03T03:56:34.152Z,2.25
2023-02-03T03:57:34.105Z,2.22
2023-02-03T03:58:34.081Z,2.22
2023-02-03T03:59:34.090Z,2.26
2023-02-03T04:00:34.067Z,2.25
2023-02-03T04:01:34.186Z,2.25
2023-02-03T04:02:34.157Z,2.25
2023-02-03T04:03:34.036Z,2.26
2023-02-03T04:04:34.028Z,2.26
2023-02-03T04:05:34.013Z,2.25
2023-02-03T04:06:34.012Z,2.31
2023-02-03T04:07:33.981Z,2.32
2023-02-03T04:08:33.987Z,2.31
2023-02-03T04:09:33.970Z,2.28
2023-02-03T04:10:33.949Z,2.29
2023-02-03T04:11:33.973Z,2.29
2023-02-03T04:12:33.922Z,2.31
2023-02-03T04:13:33.929Z,2.29
2023-02-03T04:14:33.904Z,2.31
2023-02-03T04:15:33.915Z,2.31
2023-02-03T04:16:33.988Z,2.29
2023-02-03T04:17:33.891Z,2.31
2023-02-03T04:18:33.871Z,2.36
2023-02-03T04:19:33.869Z,2.35
2023-02-03T04:20:33.841Z,2.38
2023-02-03T04:21:33.851Z,2.38
2023-02-03T04:22:33.811Z,2.38
2023-02-03T04:23:33.816Z,2.39
2023-02-03T04:24:33.841Z,2.38
2023-02-03T04:25:33.799Z,2.38
2023-02-03T04:26:33.820Z,2.43
2023-02-03T04:27:33.768Z,2.47
2023-02-03T04:28:33.747Z,2.51
2023-02-03T04:29:33.735Z,2.51
2023-02-03T04:30:33.760Z,2.51
2023-02-03T04:31:33.818Z,2.51
2023-02-03T04:32:33.681Z,2.54
2023-02-03T04:33:33.710Z,2.57
2023-02-03T04:34:33.675Z,2.57
2023-02-03T04:35:33.670Z,2.57
2023-02-03T04:36:33.690Z,2.61
2023-02-03T04:37:33.685Z,2.62
2023-02-03T04:38:33.629Z,2.62
2023-02-03T04:39:33.631Z,2.67
2023-02-03T04:40:35.091Z,2.65
2023-02-03T04:41:33.643Z,2.68
2023-02-03T04:42:33.567Z,2.80
2023-02-03T04:43:33.588Z,2.83
2023-02-03T04:44:33.575Z,2.83
2023-02-03T04:45:33.648Z,2.82
2023-02-03T04:46:33.570Z,2.86
2023-02-03T04:47:33.544Z,2.93
2023-02-03T04:48:33.520Z,2.93
2023-02-03T04:49:33.534Z,2.92
2023-02-03T04:50:33.518Z,3.05
2023-02-03T04:51:33.534Z,3.10
2023-02-03T04:52:33.481Z,3.16
2023-02-03T04:53:33.481Z,3.22
2023-02-03T04:54:33.444Z,3.19
2023-02-03T04:55:33.441Z,3.23
2023-02-03T04:56:33.468Z,3.28
2023-02-03T04:57:33.427Z,3.26
2023-02-03T04:58:33.406Z,3.32
2023-02-03T04:59:33.410Z,3.42
2023-02-03T05:00:33.377Z,3.45
2023-02-03T05:01:33.434Z,3.58
2023-02-03T05:02:33.355Z,3.59
2023-02-03T05:03:33.405Z,3.60
2023-02-03T05:04:33.325Z,3.60
2023-02-03T05:05:33.342Z,3.60
2023-02-03T05:06:33.356Z,3.68
2023-02-03T05:07:33.319Z,3.76
2023-02-03T05:08:33.293Z,3.83
2023-02-03T05:09:33.286Z,3.87
2023-02-03T05:10:33.294Z,3.92
2023-02-03T05:11:33.323Z,3.87
2023-02-03T05:12:33.246Z,3.86
2023-02-03T05:13:33.250Z,3.91
2023-02-03T05:14:33.210Z,3.96
2023-02-03T05:15:33.210Z,3.98
2023-02-03T05:16:33.298Z,3.99
2023-02-03T05:17:33.182Z,4.01
2023-02-03T05:18:33.169Z,4.04
2023-02-03T05:19:33.169Z,4.01
2023-02-03T05:20:33.159Z,3.99
2023-02-03T05:21:33.185Z,4.01
2023-02-03T05:22:33.124Z,4.02
2023-02-03T05:23:35.465Z,4.05
2023-02-03T05:24:33.097Z,4.06
2023-02-03T05:25:33.106Z,4.10
2023-02-03T05:26:33.137Z,4.10
2023-02-03T05:27:33.115Z,4.08
2023-02-03T05:28:33.067Z,4.10
2023-02-03T05:29:33.052Z,4.10
2023-02-03T05:30:33.050Z,4.13
2023-02-03T05:31:33.052Z,4.13
2023-02-03T05:32:33.047Z,4.13
2023-02-03T05:33:33.009Z,4.13
2023-02-03T05:34:32.999Z,4.16
2023-02-03T05:35:32.986Z,4.22
2023-02-03T05:36:32.984Z,4.28
2023-02-03T05:37:33.012Z,4.28
2023-02-03T05:38:32.945Z,4.32
2023-02-03T05:39:32.940Z,4.34
2023-02-03T05:40:32.932Z,4.38
2023-02-03T05:41:32.937Z,4.37
2023-02-03T05:42:32.958Z,4.37
2023-02-03T05:43:32.886Z,4.34
2023-02-03T05:44:32.898Z,4.40
2023-02-03T05:45:32.890Z,4.40
2023-02-03T05:46:32.860Z,4.41
2023-02-03T05:47:32.889Z,4.44
2023-02-03T05:48:32.839Z,4.48
2023-02-03T05:49:32.824Z,4.52
2023-02-03T05:50:32.808Z,4.55
2023-02-03T05:51:32.789Z,4.59
2023-02-03T05:52:32.825Z,4.59
2023-02-03T05:53:32.777Z,4.59
2023-02-03T05:54:32.769Z,4.66
2023-02-03T05:55:32.740Z,4.73
2023-02-03T05:56:32.780Z,4.80
2023-02-03T05:57:32.758Z,4.92
2023-02-03T05:58:32.724Z,4.96
2023-02-03T05:59:32.722Z,5.02
2023-02-03T06:00:32.738Z,5.00
2023-02-03T06:01:32.674Z,4.97
2023-02-03T06:02:32.697Z,4.93
2023-02-03T06:03:32.722Z,4.93
2023-02-03T06:04:32.705Z,5.00
2023-02-03T06:05:32.632Z,5.08
2023-02-03T06:06:32.638Z,5.10
2023-02-03T06:07:32.650Z,5.08
2023-02-03T06:08:32.602Z,5.05
2023-02-03T06:09:32.621Z,5.04
2023-02-03T06:10:32.609Z,5.00
2023-02-03T06:11:32.574Z,4.94
2023-02-03T06:12:32.594Z,4.99
2023-02-03T06:13:32.565Z,5.02
2023-02-03T06:14:32.551Z,5.07
2023-02-03T06:15:32.513Z,5.07
2023-02-03T06:16:32.555Z,5.10
2023-02-03T06:17:32.572Z,5.18
2023-02-03T06:18:32.500Z,5.25
2023-02-03T06:19:32.489Z,5.21
2023-02-03T06:20:32.463Z,5.20
2023-02-03T06:21:32.472Z,5.23
2023-02-03T06:22:32.478Z,5.29
2023-02-03T06:23:32.432Z,5.29
2023-02-03T06:24:32.429Z,5.29
2023-02-03T06:25:32.412Z,5.30
2023-02-03T06:26:32.410Z,5.36
2023-02-03T06:27:32.448Z,5.46
2023-02-03T06:28:32.391Z,5.53
2023-02-03T06:29:32.362Z,5.57
2023-02-03T06:30:32.434Z,5.61
2023-02-03T06:31:32.461Z,5.65
2023-02-03T06:32:32.374Z,5.66
2023-02-03T06:33:32.320Z,5.69
2023-02-03T06:34:32.320Z,5.73
2023-02-03T06:35:32.287Z,5.72
2023-02-03T06:36:32.290Z,5.80
2023-02-03T06:37:32.411Z,5.76
2023-02-03T06:38:32.275Z,5.79
2023-02-03T06:39:32.236Z,5.79
2023-02-03T06:40:32.261Z,5.80
2023-02-03T06:41:32.244Z,5.83
2023-02-03T06:42:32.307Z,5.86
2023-02-03T06:43:32.221Z,5.89
2023-02-03T06:44:32.204Z,5.94
2023-02-03T06:45:32.184Z,5.93
2023-02-03T06:46:32.236Z,5.93
2023-02-03T06:47:32.208Z,5.93
2023-02-03T06:48:32.193Z,6.01
2023-02-03T06:49:32.200Z,6.01
2023-02-03T06:50:32.127Z,6.04
2023-02-03T06:51:32.109Z,6.09
2023-02-03T06:52:32.169Z,6.08
2023-02-03T06:53:32.109Z,6.08
2023-02-03T06:54:32.081Z,6.05
2023-02-03T06:55:32.061Z,6.04
2023-02-03T06:56:32.062Z,6.08
2023-02-03T06:57:32.084Z,6.09
2023-02-03T06:58:32.043Z,6.16
2023-02-03T06:59:32.028Z,6.20
2023-02-03T07:00:32.380Z,6.24
2023-02-03T07:01:32.066Z,6.19
2023-02-03T07:02:32.018Z,6.17
2023-02-03T07:03:32.042Z,6.12
2023-02-03T07:04:31.974Z,6.16
2023-02-03T07:05:31.968Z,6.16
2023-02-03T07:06:31.952Z,6.14
2023-02-03T07:07:31.929Z,6.12
2023-02-03T07:08:31.957Z,6.14
2023-02-03T07:09:31.919Z,6.12
2023-02-03T07:10:31.993Z,6.12
2023-02-03T07:11:31.903Z,6.14
2023-02-03T07:12:31.901Z,6.19
2023-02-03T07:13:31.888Z,6.20
2023-02-03T07:14:31.870Z,6.20
2023-02-03T07:15:31.968Z,6.20
2023-02-03T07:16:31.829Z,6.20
2023-02-03T07:17:31.830Z,6.20
2023-02-03T07:18:48.208Z,6.20
2023-02-03T07:19:32.799Z,6.22
2023-02-03T07:20:31.863Z,6.24
2023-02-03T07:21:31.787Z,6.30
2023-02-03T07:22:31.750Z,6.33
2023-02-03T07:23:31.781Z,6.35
2023-02-03T07:24:31.745Z,6.38
2023-02-03T07:25:31.731Z,6.35
2023-02-03T07:26:31.727Z,6.35
2023-02-03T07:27:31.702Z,6.33
2023-02-03T07:28:31.747Z,6.38
2023-02-03T07:29:31.683Z,6.42
2023-02-03T07:30:31.800Z,6.42
2023-02-03T07:31:31.713Z,6.44
2023-02-03T07:32:32.915Z,6.45
2023-02-03T07:33:31.682Z,6.44
2023-02-03T07:34:31.634Z,6.48
2023-02-03T07:35:31.592Z,6.49
2023-02-03T07:36:31.605Z,6.51
2023-02-03T07:37:31.582Z,6.48
2023-02-03T07:38:31.607Z,6.52
2023-02-03T07:39:31.585Z,6.54
2023-02-03T07:40:31.557Z,6.56
2023-02-03T07:41:31.526Z,6.54
2023-02-03T07:42:31.530Z,6.52
2023-02-03T07:43:31.548Z,6.51
2023-02-03T07:44:31.504Z,6.52
2023-02-03T07:45:31.517Z,6.57
2023-02-03T07:46:31.569Z,6.59
2023-02-03T07:47:31.473Z,6.62
2023-02-03T07:48:31.518Z,6.63
2023-02-03T07:49:31.445Z,6.63
2023-02-03T07:50:31.461Z,6.64
2023-02-03T07:51:31.423Z,6.66
2023-02-03T07:52:31.495Z,6.66
2023-02-03T07:53:31.444Z,6.64
2023-02-03T07:54:31.398Z,6.67
2023-02-03T07:55:31.364Z,6.64
2023-02-03T07:56:31.365Z,6.66
2023-02-03T07:57:31.349Z,6.67
2023-02-03T07:58:31.415Z,6.69
2023-02-03T07:59:31.343Z,6.69
2023-02-03T08:00:31.393Z,6.72
2023-02-03T08:01:31.341Z,6.72
2023-02-03T08:02:31.299Z,6.72
2023-02-03T08:03:31.331Z,6.74
2023-02-03T08:04:31.308Z,6.75
2023-02-03T08:05:31.293Z,6.78
2023-02-03T08:06:31.256Z,6.78
2023-02-03T08:07:31.241Z,6.78
2023-02-03T08:08:31.325Z,6.82
2023-02-03T08:09:31.230Z,6.84
2023-02-03T08:10:31.358Z,6.85
2023-02-03T08:11:31.217Z,6.82
2023-02-03T08:12:31.229Z,6.85
2023-02-03T08:13:31.260Z,6.85
2023-02-03T08:14:31.228Z,6.84
2023-02-03T08:15:31.161Z,6.82
2023-02-03T08:16:31.199Z,6.85
2023-02-03T08:17:31.152Z,6.85
2023-02-03T08:18:32.718Z,6.87
2023-02-03T08:19:31.129Z,6.87
2023-02-03T08:20:31.235Z,6.89
2023-02-03T08:21:31.091Z,6.89
2023-02-03T08:22:31.062Z,6.92
2023-02-03T08:23:31.100Z,6.92
2023-02-03T08:24:31.057Z,6.96
2023-02-03T08:25:31.094Z,6.93
2023-02-03T08:26:31.034Z,6.95
2023-02-03T08:27:31.047Z,6.96
2023-02-03T08:28:31.046Z,7.00
2023-02-03T08:29:31.011Z,7.00
2023-02-03T08:30:31.228Z,7.03
2023-02-03T08:31:31.029Z,7.03
2023-02-03T08:32:30.976Z,7.05
2023-02-03T08:33:30.952Z,7.05
2023-02-03T08:34:30.944Z,7.07
2023-02-03T08:35:30.925Z,7.07
2023-02-03T08:36:30.930Z,7.10
2023-02-03T08:37:30.903Z,7.07
2023-02-03T08:38:30.932Z,7.13
2023-02-03T08:39:30.886Z,7.14
2023-02-03T08:40:31.180Z,7.15
2023-02-03T08:41:30.860Z,7.17
2023-02-03T08:42:30.849Z,7.18
2023-02-03T08:43:30.876Z,7.17
2023-02-03T08:44:30.828Z,7.18
2023-02-03T08:45:30.940Z,7.18
2023-02-03T08:46:30.791Z,7.17
2023-02-03T08:47:30.790Z,7.17
2023-02-03T08:48:30.837Z,7.15
2023-02-03T08:49:30.742Z,7.15
2023-02-03T08:50:31.086Z,7.15
2023-02-03T08:51:30.740Z,7.15
2023-02-03T08:52:30.747Z,7.15
2023-02-03T08:53:30.733Z,7.14
2023-02-03T08:54:30.755Z,7.15
2023-02-03T08:55:30.700Z,7.15
2023-02-03T08:56:30.688Z,7.14
2023-02-03T08:57:30.673Z,7.15
2023-02-03T08:58:30.654Z,7.18
2023-02-03T08:59:30.693Z,7.18
2023-02-03T09:00:30.833Z,7.20
2023-02-03T09:01:30.656Z,7.20
2023-02-03T09:02:30.623Z,7.21
2023-02-03T09:03:30.615Z,7.21
2023-02-03T09:04:30.633Z,7.20
2023-02-03T09:05:30.585Z,7.18
2023-02-03T09:06:30.597Z,7.21
2023-02-03T09:07:30.556Z,7.21
2023-02-03T09:08:30.562Z,7.24
2023-02-03T09:09:31.161Z,7.23
2023-02-03T09:10:30.840Z,7.23
2023-02-03T09:11:30.509Z,7.23
2023-02-03T09:12:30.511Z,7.23
2023-02-03T09:13:30.503Z,7.21
2023-02-03T09:14:30.511Z,7.23
2023-02-03T09:15:30.477Z,7.21
2023-02-03T09:16:30.519Z,7.25
2023-02-03T09:17:30.461Z,7.23
2023-02-03T09:18:30.435Z,7.25
2023-02-03T09:19:30.459Z,7.25
2023-02-03T09:20:30.794Z,7.31
2023-02-03T09:21:38.869Z,7.31
2023-02-03T09:22:31.378Z,7.31
2023-02-03T09:23:30.384Z,7.29
2023-02-03T09:24:30.409Z,7.32
2023-02-03T09:25:30.387Z,7.32
2023-02-03T09:26:30.343Z,7.32
2023-02-03T09:27:30.337Z,7.32
2023-02-03T09:28:30.338Z,7.32
2023-02-03T09:29:30.345Z,7.31
2023-02-03T09:30:30.804Z,7.31
2023-02-03T09:31:30.335Z,7.31
2023-02-03T09:32:30.300Z,7.29
2023-02-03T09:33:30.258Z,7.29
2023-02-03T09:34:30.312Z,7.32
2023-02-03T09:35:30.262Z,7.29
2023-02-03T09:36:30.245Z,7.32
2023-02-03T09:37:30.220Z,7.32
2023-02-03T09:38:30.228Z,7.32
2023-02-03T09:39:30.248Z,7.35
2023-02-03T09:40:30.583Z,7.36
2023-02-03T09:41:30.190Z,7.39
2023-02-03T09:42:30.170Z,7.38
2023-02-03T09:43:30.159Z,7.36
2023-02-03T09:44:30.173Z,7.39
2023-02-03T09:45:30.122Z,7.38
2023-02-03T09:46:30.153Z,7.39
2023-02-03T09:47:30.094Z,7.40
2023-02-03T09:48:30.089Z,7.42
2023-02-03T09:49:30.110Z,7.42
2023-02-03T09:50:30.392Z,7.42
2023-02-03T09:51:30.058Z,7.39
2023-02-03T09:52:30.053Z,7.42
2023-02-03T09:53:30.032Z,7.40
2023-02-03T09:54:30.085Z,7.42
2023-02-03T09:55:30.029Z,7.40
2023-02-03T09:56:30.011Z,7.43
2023-02-03T09:57:29.990Z,7.43
2023-02-03T09:58:29.981Z,7.45
2023-02-03T09:59:30.033Z,7.42
2023-02-03T10:00:30.191Z,7.45
2023-02-03T10:01:30.002Z,7.43
2023-02-03T10:02:29.955Z,7.45
2023-02-03T10:03:29.949Z,7.43
2023-02-03T10:04:29.943Z,7.48
2023-02-03T10:05:29.897Z,7.48
2023-02-03T10:06:29.895Z,7.50
2023-02-03T10:07:29.876Z,7.48
2023-02-03T10:08:29.860Z,7.47
2023-02-03T10:09:29.840Z,7.47
2023-02-03T10:10:30.138Z,7.47
2023-02-03T10:11:29.822Z,7.43
2023-02-03T10:12:29.816Z,7.42
2023-02-03T10:13:29.818Z,7.42
2023-02-03T10:14:29.801Z,7.43
2023-02-03T10:15:29.816Z,7.42
2023-02-03T10:16:29.835Z,7.42
2023-02-03T10:17:29.752Z,7.42
2023-02-03T10:18:29.769Z,7.42
2023-02-03T10:19:29.739Z,7.40
2023-02-03T10:20:30.007Z,7.40
2023-02-03T10:21:29.719Z,7.39
2023-02-03T10:22:29.699Z,7.40
2023-02-03T10:23:29.708Z,7.40
2023-02-03T10:24:29.697Z,7.39
2023-02-03T10:25:29.705Z,7.40
2023-02-03T10:26:29.686Z,7.39
2023-02-03T10:27:29.648Z,7.38
2023-02-03T10:28:29.659Z,7.38
2023-02-03T10:29:29.618Z,7.38
2023-02-03T10:30:30.152Z,7.38
2023-02-03T10:31:29.678Z,7.38
2023-02-03T10:32:29.603Z,7.42
2023-02-03T10:33:29.578Z,7.38
2023-02-03T10:34:29.544Z,7.39
2023-02-03T10:35:29.601Z,7.38
2023-02-03T10:36:29.537Z,7.39
2023-02-03T10:37:30.444Z,7.39
2023-02-03T10:38:29.525Z,7.40
2023-02-03T10:39:29.507Z,7.39
2023-02-03T10:40:29.964Z,7.40
2023-02-03T10:41:29.481Z,7.40
2023-02-03T10:42:29.466Z,7.40
2023-02-03T10:43:29.452Z,7.42
2023-02-03T10:44:29.433Z,7.43
2023-02-03T10:45:29.466Z,7.45
2023-02-03T10:46:29.473Z,7.43
2023-02-03T10:47:29.397Z,7.47
2023-02-03T10:48:29.387Z,7.48
2023-02-03T10:49:29.395Z,7.51
2023-02-03T10:50:29.802Z,7.53
2023-02-03T10:51:29.360Z,7.53
2023-02-03T10:52:29.331Z,7.53
2023-02-03T10:53:29.341Z,7.54
2023-02-03T10:54:29.333Z,7.54
2023-02-03T10:55:29.341Z,7.56
2023-02-03T10:56:29.301Z,7.56
2023-02-03T10:57:29.307Z,7.57
2023-02-03T10:58:29.297Z,7.58
2023-02-03T10:59:29.304Z,7.57
2023-02-03T11:00:29.874Z,7.58
2023-02-03T11:01:29.269Z,7.58
2023-02-03T11:02:29.339Z,7.58
2023-02-03T11:03:29.253Z,7.58
2023-02-03T11:04:29.247Z,7.61
2023-02-03T11:05:29.266Z,7.61
2023-02-03T11:06:29.198Z,7.63
2023-02-03T11:07:29.190Z,7.67
2023-02-03T11:08:29.152Z,7.70
2023-02-03T11:09:29.159Z,7.72
2023-02-03T11:10:29.522Z,7.75
2023-02-03T11:11:29.140Z,7.75
2023-02-03T11:12:29.111Z,7.75
2023-02-03T11:13:29.112Z,7.72
2023-02-03T11:14:29.067Z,7.70
2023-02-03T11:15:29.281Z,7.67
2023-02-03T11:16:29.120Z,7.67
2023-02-03T11:17:29.079Z,7.63
2023-02-03T11:18:29.047Z,7.63
2023-02-03T11:19:29.091Z,7.60
2023-02-03T11:20:29.416Z,7.60
2023-02-03T11:21:29.056Z,7.60
2023-02-03T11:22:29.004Z,7.60
2023-02-03T11:23:28.991Z,7.58
2023-02-03T11:24:28.982Z,7.58
2023-02-03T11:25:28.957Z,7.58
2023-02-03T11:26:28.989Z,7.58
2023-02-03T11:27:28.941Z,7.58
2023-02-03T11:28:28.915Z,7.60
2023-02-03T11:29:28.931Z,7.58
2023-02-03T11:30:29.174Z,7.60
2023-02-03T11:31:29.082Z,7.57
2023-02-03T11:32:28.907Z,7.61
2023-02-03T11:33:28.872Z,7.63
2023-02-03T11:34:28.863Z,7.63
2023-02-03T11:35:28.857Z,7.66
2023-02-03T11:36:28.887Z,7.66
2023-02-03T11:37:28.827Z,7.67
2023-02-03T11:38:28.817Z,7.69
2023-02-03T11:39:28.812Z,7.67
2023-02-03T11:40:29.244Z,7.69
2023-02-03T11:41:28.835Z,7.70
2023-02-03T11:42:28.751Z,7.73
2023-02-03T11:43:28.752Z,7.77
2023-02-03T11:44:28.744Z,7.82
2023-02-03T11:45:28.744Z,7.87
2023-02-03T11:46:28.810Z,7.90
2023-02-03T11:47:28.728Z,7.91
2023-02-03T11:48:28.698Z,7.91
2023-02-03T11:49:28.713Z,7.93
2023-02-03T11:50:28.988Z,7.95
2023-02-03T11:51:28.693Z,7.94
2023-02-03T11:52:28.696Z,7.95
2023-02-03T11:53:28.620Z,7.95
2023-02-03T11:54:28.640Z,7.95
2023-02-03T11:55:28.606Z,7.95
2023-02-03T11:56:28.597Z,7.97
2023-02-03T11:57:28.636Z,8.00
2023-02-03T11:58:28.581Z,8.00
2023-02-03T11:59:28.573Z,7.97
2023-02-03T12:00:28.851Z,7.97
2023-02-03T12:01:28.569Z,7.91
2023-02-03T12:02:28.606Z,7.80
2023-02-03T12:03:28.538Z,7.21
2023-02-03T12:04:28.506Z,6.67
2023-02-03T12:05:28.516Z,6.19
2023-02-03T12:06:28.506Z,6.05
2023-02-03T12:07:28.524Z,5.99
2023-02-03T12:08:28.471Z,5.98
2023-02-03T12:09:28.427Z,5.97
2023-02-03T12:10:28.710Z,5.98
2023-02-03T12:11:28.429Z,5.97
2023-02-03T12:12:28.435Z,5.94
2023-02-03T12:13:28.391Z,5.94
2023-02-03T12:14:28.400Z,5.98
2023-02-03T12:15:28.418Z,6.01
2023-02-03T12:16:28.365Z,6.08
2023-02-03T12:17:28.395Z,6.12
2023-02-03T12:18:28.340Z,6.24
2023-02-03T12:19:28.340Z,6.33
2023-02-03T12:20:28.588Z,6.45
2023-02-03T12:21:28.327Z,6.52
2023-02-03T12:22:28.324Z,6.64
2023-02-03T12:23:28.315Z,6.69
2023-02-03T12:24:28.256Z,6.74
2023-02-03T12:25:28.266Z,6.77
2023-02-03T12:26:28.264Z,6.78
2023-02-03T12:27:28.293Z,6.79
2023-02-03T12:28:33.734Z,6.81
2023-02-03T12:29:31.676Z,6.82
2023-02-03T12:30:28.513Z,6.88
2023-02-03T12:31:28.316Z,6.93
2023-02-03T12:32:28.211Z,6.97
2023-02-03T12:33:28.225Z,7.02
2023-02-03T12:34:28.144Z,7.06
2023-02-03T12:35:28.944Z,7.06
2023-02-03T12:36:28.144Z,7.14
2023-02-03T12:37:28.138Z,7.17
2023-02-03T12:38:28.127Z,7.23
2023-02-03T12:39:28.102Z,7.32
2023-02-03T12:40:28.339Z,7.60
2023-02-03T12:41:28.069Z,7.83
2023-02-03T12:42:28.050Z,8.00
2023-02-03T12:43:28.112Z,8.12
2023-02-03T12:44:28.059Z,8.28
2023-02-03T12:45:28.105Z,8.34
2023-02-03T12:46:28.027Z,9.11
2023-02-03T12:47:28.030Z,9.34
2023-02-03T12:48:28.038Z,9.54
2023-02-03T12:49:28.016Z,9.32
2023-02-03T12:50:28.262Z,9.14
2023-02-03T12:51:27.971Z,8.97
2023-02-03T12:52:27.956Z,8.94
2023-02-03T12:53:29.350Z,9.06
2023-02-03T12:54:27.930Z,8.92
2023-02-03T12:55:27.931Z,8.66
2023-02-03T12:56:27.900Z,8.38
2023-02-03T12:57:27.910Z,8.27
2023-02-03T12:58:27.927Z,8.13
2023-02-03T12:59:27.882Z,8.00
2023-02-03T13:00:28.246Z,7.94
2023-02-03T13:01:27.875Z,7.87
2023-02-03T13:02:27.898Z,7.77
2023-02-03T13:03:27.875Z,7.79
2023-02-03T13:04:27.831Z,8.36
2023-02-03T13:05:27.788Z,9.13
2023-02-03T13:06:27.800Z,9.79
2023-02-03T13:07:27.795Z,10.02
2023-02-03T13:08:27.799Z,9.91
2023-02-03T13:09:27.757Z,10.23
2023-02-03T13:10:27.993Z,10.38
2023-02-03T13:11:27.749Z,10.13
2023-02-03T13:12:27.726Z,10.30
2023-02-03T13:13:27.739Z,10.01
2023-02-03T13:14:27.768Z,9.66
2023-02-03T13:15:27.674Z,9.79
2023-02-03T13:16:27.787Z,9.92
2023-02-03T13:17:27.687Z,10.15
2023-02-03T13:18:27.700Z,9.97